Terminal Aerodrome Forecast
Issued by NWS Wilmington, OH

Home | Current Version | Previous Version | Text Only | Print | Product List | Glossary On
Versions: 1 2 3 4 5 6 7 8 9 10 11 12 13 14 15 16 17
000
FTUS41 KILN 271100
TAFDAY
TAF
KDAY 271131Z 2712/2812 29005KT P6SM OVC025
      TEMPO 2712/2714 -SN OVC015
     FM271400 29007KT P6SM BKN035
     FM280000 08003KT P6SM FEW035 SCT150=

USA.gov is the U.S. government's official web portal to all federal, state and local government web resources and services.